Time;durP1;ratioP1;P1;durP2;ratioP2;P2;SDS_P1;SDS_P2;PMS_P1;PMS_P2;Temp;Humidity;BMP_temperature;BMP_pressure;BME280_temperature;BME280_humidity;BME280_pressure;Samples;Min_cycle;Max_cycle;Signal;HPM_P1;HPM_P2
2023/04/25 00:01:45;;;;;;;31.27;28.88;;;6.90;99.90;;;;;;5169845;28;20090;-75
2023/04/25 00:04:15;;;;;;;31.90;29.35;;;7.00;99.90;;;;;;5187344;28;20034;-74
2023/04/25 00:06:46;;;;;;;33.88;31.20;;;6.80;99.90;;;;;;5187626;28;20026;-75
2023/04/25 00:09:17;;;;;;;33.47;31.02;;;6.80;99.90;;;;;;5169788;28;20426;-75
2023/04/25 00:11:48;;;;;;;32.42;30.13;;;6.70;99.90;;;;;;5187095;28;20105;-75
2023/04/25 00:14:19;;;;;;;33.97;31.38;;;6.90;99.90;;;;;;5187268;28;20049;-74
2023/04/25 00:16:51;;;;;;;33.90;31.13;;;6.80;99.90;;;;;;5187739;28;20472;-75
2023/04/25 00:19:22;;;;;;;34.28;31.58;;;6.80;99.90;;;;;;5186761;28;20084;-75
2023/04/25 00:21:53;;;;;;;37.85;34.90;;;6.90;99.90;;;;;;5187311;28;20025;-75
2023/04/25 00:24:24;;;;;;;38.15;34.97;;;6.80;99.90;;;;;;5187298;28;20026;-74
2023/04/25 00:26:55;;;;;;;34.78;31.98;;;6.90;99.90;;;;;;5187149;28;20025;-75
2023/04/25 00:29:25;;;;;;;37.88;34.85;;;6.90;99.90;;;;;;5186752;28;20060;-74
2023/04/25 00:31:56;;;;;;;36.70;33.78;;;7.00;99.90;;;;;;5187052;28;20109;-75
2023/04/25 00:34:27;;;;;;;36.00;33.20;;;6.90;99.90;;;;;;5186140;28;20026;-74
2023/04/25 00:36:58;;;;;;;38.03;35.00;;;6.80;99.90;;;;;;5186866;28;20516;-75
2023/04/25 00:39:29;;;;;;;35.70;32.85;;;6.80;99.90;;;;;;5169286;28;20482;-75
2023/04/25 00:42:01;;;;;;;35.47;32.83;;;6.80;99.90;;;;;;5168955;28;20092;-75
2023/04/25 00:44:33;;;;;;;33.55;31.15;;;6.90;99.90;;;;;;5186931;28;20014;-75
2023/04/25 00:47:04;;;;;;;36.90;33.83;;;7.00;99.90;;;;;;5186570;28;20100;-75
2023/04/25 00:49:35;;;;;;;34.30;31.58;;;6.90;99.90;;;;;;5169070;28;20092;-75
2023/04/25 00:52:06;;;;;;;36.33;33.45;;;7.00;99.90;;;;;;5169189;28;20042;-75
2023/04/25 00:54:38;;;;;;;37.13;34.22;;;7.00;99.90;;;;;;5186873;28;20018;-75
2023/04/25 00:57:09;;;;;;;35.97;33.17;;;7.00;99.90;;;;;;5169042;28;20034;-75
2023/04/25 00:59:45;;;;;;;37.15;33.97;;;7.10;99.90;;;;;;5186670;28;20029;-75
2023/04/25 01:02:17;;;;;;;35.88;33.08;;;7.10;99.90;;;;;;5186666;28;20021;-75
2023/04/25 01:04:48;;;;;;;34.33;31.73;;;7.30;99.90;;;;;;5186364;28;20030;-75
2023/04/25 01:07:19;;;;;;;34.97;32.28;;;7.40;99.90;;;;;;5186553;28;20045;-75
2023/04/25 01:09:52;;;;;;;34.13;31.52;;;7.60;99.90;;;;;;5168804;28;20045;-75
2023/04/25 01:12:23;;;;;;;32.75;29.92;;;7.50;99.90;;;;;;5186169;28;20038;-75
2023/04/25 01:14:54;;;;;;;33.67;31.27;;;7.40;99.90;;;;;;5186439;28;20033;-74
2023/04/25 01:17:27;;;;;;;35.65;32.95;;;7.60;99.90;;;;;;5186429;28;20033;-75
2023/04/25 01:19:58;;;;;;;33.90;31.17;;;7.50;99.90;;;;;;5186288;28;20559;-75
2023/04/25 01:22:28;;;;;;;35.35;32.30;;;7.50;99.90;;;;;;5186479;28;20022;-75
2023/04/25 01:25:00;;;;;;;35.53;32.47;;;7.70;99.90;;;;;;5186047;28;20040;-75
2023/04/25 01:27:32;;;;;;;38.13;34.78;;;7.70;99.90;;;;;;5186411;28;20021;-75
2023/04/25 01:30:04;;;;;;;38.35;35.15;;;7.80;99.90;;;;;;5168680;28;20111;-75
2023/04/25 01:32:38;;;;;;;34.38;31.75;;;7.70;99.90;;;;;;5186448;28;20041;-75
2023/04/25 01:35:11;;;;;;;34.58;31.98;;;7.60;99.90;;;;;;5186378;28;20105;-74
2023/04/25 01:37:43;;;;;;;31.33;29.02;;;7.60;99.90;;;;;;5186192;28;20030;-74
2023/04/25 01:40:14;;;;;;;31.50;29.15;;;7.60;99.90;;;;;;5168674;28;20497;-75
2023/04/25 01:42:48;;;;;;;32.72;30.40;;;7.90;99.90;;;;;;5186254;28;20077;-75
2023/04/25 01:45:19;;;;;;;34.78;32.15;;;7.80;99.90;;;;;;5186400;28;20050;-75
2023/04/25 01:47:50;;;;;;;32.88;30.48;;;7.60;99.90;;;;;;5190062;28;20033;-75
2023/04/25 01:50:21;;;;;;;32.55;30.10;;;7.50;99.90;;;;;;5190336;28;20033;-75
2023/04/25 01:52:52;;;;;;;32.80;30.38;;;7.80;99.90;;;;;;5190082;28;20038;-75
2023/04/25 01:55:23;;;;;;;35.05;32.47;;;7.80;99.90;;;;;;5172336;28;20022;-75
2023/04/25 01:57:54;;;;;;;36.78;34.05;;;7.80;99.90;;;;;;5189849;28;20032;-75
2023/04/25 02:00:25;;;;;;;35.03;32.47;;;7.90;99.90;;;;;;5189694;28;20465;-75
2023/04/25 02:02:58;;;;;;;37.95;35.15;;;7.80;99.90;;;;;;5189872;28;20125;-74
2023/04/25 02:05:38;;;;;;;36.92;34.05;;;7.60;99.90;;;;;;5189878;28;20049;-75
2023/04/25 02:08:09;;;;;;;37.63;34.75;;;7.90;99.90;;;;;;5190309;28;20026;-75
2023/04/25 02:10:40;;;;;;;38.97;35.80;;;7.90;99.90;;;;;;5189710;28;20026;-75
2023/04/25 02:13:11;;;;;;;39.25;36.42;;;7.70;99.90;;;;;;5189605;28;20105;-75
2023/04/25 02:15:42;;;;;;;40.65;37.60;;;7.40;99.90;;;;;;5189575;28;20026;-75
2023/04/25 02:18:13;;;;;;;40.30;37.22;;;7.40;99.90;;;;;;5189580;28;20105;-75
2023/04/25 02:20:45;;;;;;;40.60;37.45;;;7.50;99.90;;;;;;5189346;28;20053;-75
2023/04/25 02:23:16;;;;;;;39.72;36.63;;;7.70;99.90;;;;;;5189498;28;20028;-75
2023/04/25 02:25:46;;;;;;;39.20;36.28;;;7.70;99.90;;;;;;5189565;28;20021;-75
2023/04/25 02:28:17;;;;;;;39.17;36.22;;;7.50;99.90;;;;;;5189410;28;20018;-75
2023/04/25 02:30:48;;;;;;;39.15;36.13;;;7.60;99.90;;;;;;5189332;28;20041;-75
2023/04/25 02:33:20;;;;;;;42.10;38.97;;;7.30;99.90;;;;;;5189298;28;20029;-75
2023/04/25 02:35:51;;;;;;;40.15;37.25;;;7.20;99.90;;;;;;5189288;28;20139;-75
2023/04/25 02:38:22;;;;;;;39.65;36.75;;;7.40;99.90;;;;;;5189125;28;20121;-75
2023/04/25 02:40:53;;;;;;;41.08;37.83;;;7.40;99.90;;;;;;5188912;28;20109;-75
2023/04/25 02:43:24;;;;;;;38.42;35.55;;;7.50;99.90;;;;;;5189047;28;20028;-75
2023/04/25 02:45:55;;;;;;;39.53;36.60;;;7.50;99.90;;;;;;5189119;28;20034;-75
2023/04/25 02:48:25;;;;;;;38.38;35.33;;;7.30;99.90;;;;;;5188983;28;20025;-75
2023/04/25 02:50:56;;;;;;;36.78;33.97;;;7.30;99.90;;;;;;5188926;28;20417;-75
2023/04/25 02:53:27;;;;;;;38.08;35.38;;;7.40;99.90;;;;;;5188853;28;20068;-74
2023/04/25 02:55:59;;;;;;;38.97;36.17;;;7.40;99.90;;;;;;5188765;28;20470;-75
2023/04/25 02:58:29;;;;;;;39.17;36.13;;;7.40;99.90;;;;;;5187834;28;20604;-75
2023/04/25 03:01:00;;;;;;;36.63;33.67;;;7.10;99.90;;;;;;5188743;28;20117;-75
2023/04/25 03:03:31;;;;;;;39.90;36.80;;;7.30;99.90;;;;;;5189083;28;20061;-74
2023/04/25 03:06:02;;;;;;;37.45;34.70;;;7.00;99.90;;;;;;5188817;28;20048;-75
2023/04/25 03:08:34;;;;;;;37.33;34.47;;;7.30;99.90;;;;;;5188710;28;20026;-74
2023/04/25 03:11:05;;;;;;;36.97;34.22;;;7.20;99.90;;;;;;5170987;28;20037;-74
2023/04/25 03:13:35;;;;;;;36.10;33.22;;;7.00;99.90;;;;;;5170902;28;20485;-75
2023/04/25 03:16:06;;;;;;;38.30;35.30;;;7.00;99.90;;;;;;5188959;28;20029;-75
2023/04/25 03:18:37;;;;;;;36.15;33.38;;;6.80;99.90;;;;;;5187168;28;20112;-75
2023/04/25 03:21:08;;;;;;;35.67;33.17;;;6.90;99.90;;;;;;5187408;28;20060;-75
2023/04/25 03:23:39;;;;;;;37.83;35.13;;;6.90;99.90;;;;;;5188428;28;20033;-74
2023/04/25 03:26:10;;;;;;;37.50;34.60;;;7.00;99.90;;;;;;5188779;28;20029;-75
2023/04/25 03:28:41;;;;;;;38.10;35.05;;;7.00;99.90;;;;;;5188322;28;20029;-75
2023/04/25 03:31:12;;;;;;;37.90;35.08;;;6.90;99.90;;;;;;5188526;28;20092;-75
2023/04/25 03:33:43;;;;;;;39.65;36.55;;;6.90;99.90;;;;;;5188395;28;20057;-75
2023/04/25 03:36:14;;;;;;;39.72;36.67;;;6.90;99.90;;;;;;5188506;28;20513;-74
2023/04/25 03:38:45;;;;;;;39.88;36.65;;;7.10;99.90;;;;;;5188122;28;20030;-75
2023/04/25 03:41:16;;;;;;;39.67;36.50;;;6.90;99.90;;;;;;5188076;28;20500;-75
2023/04/25 03:43:46;;;;;;;37.83;34.78;;;7.00;99.90;;;;;;5188071;28;20101;-74
2023/04/25 03:46:17;;;;;;;41.13;37.83;;;7.30;99.90;;;;;;5187988;28;20030;-75
2023/04/25 03:48:48;;;;;;;39.53;36.50;;;7.00;99.90;;;;;;5187707;28;20022;-75
2023/04/25 03:51:19;;;;;;;43.05;39.75;;;7.40;99.90;;;;;;5187887;28;20100;-75
2023/04/25 03:53:50;;;;;;;44.75;41.15;;;7.40;99.90;;;;;;5170778;28;20374;-75
2023/04/25 03:56:21;;;;;;;45.42;42.03;;;7.60;99.90;;;;;;5187535;28;20125;-75
2023/04/25 03:58:51;;;;;;;45.17;41.67;;;7.60;99.90;;;;;;5187751;28;20018;-75
2023/04/25 04:01:22;;;;;;;43.38;40.03;;;7.50;99.90;;;;;;5187741;28;20018;-75
2023/04/25 04:03:53;;;;;;;50.60;46.42;;;7.80;99.90;;;;;;5187801;28;20021;-75
2023/04/25 04:06:25;;;;;;;48.10;44.05;;;7.70;99.90;;;;;;5187641;28;20026;-75
2023/04/25 04:08:56;;;;;;;44.92;41.20;;;7.90;99.90;;;;;;5169738;28;20500;-75
2023/04/25 04:11:27;;;;;;;46.70;42.80;;;7.90;99.90;;;;;;5169870;28;20393;-75
2023/04/25 04:13:58;;;;;;;44.05;40.63;;;7.90;99.90;;;;;;5187491;28;20030;-75
2023/04/25 04:16:29;;;;;;;47.42;43.63;;;8.10;99.90;;;;;;5187518;28;20462;-75
2023/04/25 04:18:59;;;;;;;44.05;40.58;;;8.00;99.90;;;;;;5169513;28;20037;-75
2023/04/25 04:21:31;;;;;;;43.00;39.78;;;8.00;99.90;;;;;;5169510;28;20046;-75
2023/04/25 04:24:03;;;;;;;43.83;40.42;;;8.10;99.90;;;;;;5187305;28;20045;-75
2023/04/25 04:26:34;;;;;;;45.13;41.88;;;8.10;99.90;;;;;;5187261;28;20386;-75
2023/04/25 04:29:05;;;;;;;47.05;43.25;;;8.30;99.90;;;;;;5187038;28;20022;-75
2023/04/25 04:31:35;;;;;;;51.63;47.20;;;8.40;99.90;;;;;;5187089;28;20048;-75
2023/04/25 04:34:06;;;;;;;48.25;44.28;;;8.60;99.90;;;;;;5169268;28;20466;-75
2023/04/25 04:36:37;;;;;;;49.20;44.63;;;8.50;99.90;;;;;;5187492;28;20860;-75
2023/04/25 04:39:09;;;;;;;47.83;43.50;;;8.80;99.90;;;;;;5187318;28;20034;-75
2023/04/25 04:41:40;;;;;;;47.53;43.22;;;9.00;99.90;;;;;;5186945;28;20026;-75
2023/04/25 04:44:11;;;;;;;46.72;42.35;;;9.10;99.90;;;;;;5187142;28;20037;-75
2023/04/25 04:46:42;;;;;;;46.20;42.08;;;9.30;99.90;;;;;;5169480;28;20033;-75
2023/04/25 04:49:15;;;;;;;44.88;40.88;;;9.60;99.90;;;;;;5186906;28;20381;-75
2023/04/25 04:51:47;;;;;;;42.95;39.03;;;9.80;99.90;;;;;;5186795;28;20405;-75
2023/04/25 04:54:18;;;;;;;40.45;36.55;;;10.10;99.90;;;;;;5186831;28;20093;-75
2023/04/25 04:56:50;;;;;;;43.15;39.25;;;10.30;99.90;;;;;;5186775;28;20106;-75
2023/04/25 04:59:21;;;;;;;41.85;37.80;;;10.60;99.90;;;;;;5186811;28;20369;-75
2023/04/25 05:01:53;;;;;;;40.45;36.60;;;10.80;99.90;;;;;;5169087;28;20075;-75
2023/04/25 05:04:24;;;;;;;52.67;47.65;;;11.10;99.90;;;;;;5187112;28;20030;-75
2023/04/25 05:06:54;;;;;;;55.25;50.10;;;11.30;99.90;;;;;;5169142;28;20073;-75
2023/04/25 05:09:26;;;;;;;54.22;49.35;;;11.40;99.90;;;;;;5186745;28;20105;-75
2023/04/25 05:11:57;;;;;;;58.22;52.45;;;11.60;99.90;;;;;;5186436;28;20485;-75
2023/04/25 05:14:29;;;;;;;50.42;45.85;;;11.90;99.90;;;;;;5168994;28;20057;-75
2023/04/25 05:17:00;;;;;;;42.90;39.28;;;12.00;99.90;;;;;;5186779;28;20030;-75
2023/04/25 05:19:32;;;;;;;45.35;41.72;;;12.50;99.90;;;;;;5186340;28;20046;-75
2023/04/25 05:22:03;;;;;;;43.53;40.00;;;12.70;99.90;;;;;;5189372;28;20049;-75
2023/04/25 05:24:34;;;;;;;45.58;42.08;;;13.10;99.90;;;;;;5191551;28;20030;-75
2023/04/25 05:27:05;;;;;;;41.33;38.03;;;13.30;99.90;;;;;;5190916;28;20030;-75
2023/04/25 05:29:36;;;;;;;39.20;36.08;;;13.70;99.90;;;;;;5190746;28;20056;-75
2023/04/25 05:32:08;;;;;;;39.75;36.70;;;13.90;99.90;;;;;;5190414;28;20121;-75
2023/04/25 05:34:39;;;;;;;38.15;34.92;;;14.10;99.90;;;;;;5190657;28;20053;-75
2023/04/25 05:37:10;;;;;;;38.63;35.88;;;14.40;99.90;;;;;;5190359;28;20034;-75
2023/04/25 05:39:41;;;;;;;34.85;32.25;;;14.40;99.90;;;;;;5190165;28;20056;-75
2023/04/25 05:42:11;;;;;;;36.90;34.17;;;14.50;99.90;;;;;;5190475;28;20071;-75
2023/04/25 05:44:42;;;;;;;36.17;33.17;;;14.60;99.90;;;;;;5190417;28;20029;-75
2023/04/25 05:47:13;;;;;;;33.72;31.13;;;14.70;99.90;;;;;;5190504;28;20172;-75
2023/04/25 05:49:44;;;;;;;31.88;29.48;;;14.90;99.90;;;;;;5190095;28;20030;-75
2023/04/25 05:52:15;;;;;;;32.25;29.85;;;14.90;99.90;;;;;;5190082;28;20506;-75
2023/04/25 05:54:46;;;;;;;33.50;31.10;;;15.00;99.90;;;;;;5190141;28;20079;-75
2023/04/25 05:57:24;;;;;;;30.27;27.98;;;15.20;99.90;;;;;;5172426;28;20359;-74
2023/04/25 05:59:55;;;;;;;32.58;29.83;;;15.20;99.90;;;;;;5190117;28;20491;-75
2023/04/25 06:02:26;;;;;;;30.73;28.48;;;15.30;99.90;;;;;;5172535;28;20113;-75
2023/04/25 06:04:57;;;;;;;29.77;27.67;;;15.30;99.90;;;;;;5190131;28;20100;-75
2023/04/25 06:07:28;;;;;;;26.67;24.48;;;15.30;99.90;;;;;;5190066;28;20088;-75
2023/04/25 06:10:00;;;;;;;29.38;26.83;;;15.40;99.90;;;;;;5172235;28;20045;-75
2023/04/25 06:12:31;;;;;;;28.90;26.58;;;15.50;99.90;;;;;;5189849;28;20030;-75
2023/04/25 06:15:02;;;;;;;29.20;26.83;;;15.70;99.90;;;;;;5189777;28;20370;-75
2023/04/25 06:17:33;;;;;;;27.80;25.80;;;15.80;99.90;;;;;;5189567;28;20034;-75
2023/04/25 06:20:05;;;;;;;28.50;26.35;;;16.00;99.90;;;;;;5189439;28;20058;-75
2023/04/25 06:22:36;;;;;;;25.80;23.17;;;16.10;99.90;;;;;;5189925;28;20026;-75
2023/04/25 06:25:07;;;;;;;25.55;23.42;;;16.20;99.90;;;;;;5189579;28;20033;-75
2023/04/25 06:27:38;;;;;;;26.23;24.38;;;16.20;99.90;;;;;;5189268;28;20121;-75
2023/04/25 06:30:11;;;;;;;27.08;24.48;;;16.40;99.90;;;;;;5189444;28;20540;-75
2023/04/25 06:32:42;;;;;;;24.77;22.75;;;16.40;99.90;;;;;;5189193;28;20041;-75
2023/04/25 06:35:13;;;;;;;26.38;24.08;;;16.40;99.90;;;;;;5189002;28;20026;-75
2023/04/25 06:37:44;;;;;;;27.20;25.00;;;16.40;99.90;;;;;;5189266;28;20030;-75
2023/04/25 06:40:17;;;;;;;29.02;26.42;;;16.40;99.90;;;;;;5171469;28;20034;-75
2023/04/25 06:42:48;;;;;;;27.30;25.10;;;16.40;99.90;;;;;;5171639;28;20053;-74
2023/04/25 06:45:19;;;;;;;27.70;25.48;;;16.40;99.90;;;;;;5171733;28;20493;-75
2023/04/25 06:47:49;;;;;;;24.77;22.90;;;16.30;99.90;;;;;;5189365;28;20055;-75
2023/04/25 06:50:20;;;;;;;26.88;24.77;;;16.30;99.90;;;;;;5171385;28;20034;-75
2023/04/25 06:52:51;;;;;;;25.40;23.27;;;16.40;99.90;;;;;;5189029;28;20037;-75
2023/04/25 06:55:22;;;;;;;26.02;23.88;;;16.40;99.90;;;;;;5188757;28;20030;-75
2023/04/25 06:57:53;;;;;;;24.52;22.83;;;16.40;99.90;;;;;;5189022;28;20033;-75
2023/04/25 07:00:24;;;;;;;25.85;23.75;;;16.50;99.90;;;;;;5171387;28;20112;-75
2023/04/25 07:02:55;;;;;;;25.67;23.65;;;16.50;99.90;;;;;;5189051;28;20025;-74
2023/04/25 07:05:26;;;;;;;26.38;24.58;;;16.40;99.90;;;;;;5188790;28;20025;-75
2023/04/25 07:07:57;;;;;;;80.22;26.20;;;16.50;99.90;;;;;;5188796;28;20068;-75
2023/04/25 07:10:28;;;;;;;22.92;21.27;;;16.40;99.90;;;;;;5171251;28;20442;-74
2023/04/25 07:12:59;;;;;;;24.90;23.13;;;16.40;99.90;;;;;;5171001;28;20087;-75
2023/04/25 07:15:29;;;;;;;24.45;22.70;;;16.40;99.90;;;;;;5188492;28;20018;-75
2023/04/25 07:18:00;;;;;;;22.38;20.70;;;16.40;99.90;;;;;;5188406;28;20026;-75
2023/04/25 07:20:32;;;;;;;23.95;22.30;;;16.50;99.90;;;;;;5188282;28;20153;-75
2023/04/25 07:23:03;;;;;;;22.77;21.00;;;16.60;99.90;;;;;;5188353;28;20022;-75
2023/04/25 07:25:35;;;;;;;24.33;22.33;;;16.70;99.90;;;;;;5171087;28;20045;-75
2023/04/25 07:28:05;;;;;;;22.90;21.33;;;16.70;99.90;;;;;;5188686;28;20496;-75
2023/04/25 07:30:36;;;;;;;23.40;21.35;;;16.90;99.90;;;;;;5188429;28;20105;-75
2023/04/25 07:33:07;;;;;;;22.48;20.88;;;17.00;99.90;;;;;;5187023;28;20042;-75
2023/04/25 07:35:38;;;;;;;23.13;21.25;;;17.10;99.90;;;;;;5188086;28;20102;-75
2023/04/25 07:38:10;;;;;;;23.35;21.70;;;17.10;99.90;;;;;;5188097;28;20367;-74
2023/04/25 07:40:41;;;;;;;23.48;21.83;;;17.20;99.90;;;;;;5188103;28;20022;-74
2023/04/25 07:43:14;;;;;;;20.45;18.85;;;17.20;99.90;;;;;;5169913;28;20057;-74
2023/04/25 07:45:46;;;;;;;20.20;18.90;;;17.40;99.90;;;;;;5188283;28;20034;-75
2023/04/25 07:48:20;;;;;;;23.67;21.27;;;17.60;99.90;;;;;;5188261;28;20025;-75
2023/04/25 07:50:51;;;;;;;21.70;20.00;;;17.60;99.90;;;;;;5187875;28;20030;-75
2023/04/25 07:53:22;;;;;;;22.17;20.48;;;17.70;99.90;;;;;;5170228;28;20164;-75
2023/04/25 07:55:53;;;;;;;21.52;20.02;;;17.70;99.90;;;;;;5170056;28;20026;-75
2023/04/25 07:58:24;;;;;;;23.27;21.48;;;17.40;99.90;;;;;;5187486;28;20053;-75
2023/04/25 08:00:54;;;;;;;23.10;21.33;;;17.50;99.90;;;;;;5187819;28;20053;-75
2023/04/25 08:03:25;;;;;;;21.92;20.30;;;17.50;99.90;;;;;;5170224;28;20034;-75
2023/04/25 08:05:56;;;;;;;23.05;21.30;;;17.30;99.90;;;;;;5187614;28;20047;-75
2023/04/25 08:08:27;;;;;;;21.10;19.60;;;17.70;99.90;;;;;;5187575;28;20382;-75
2023/04/25 08:10:58;;;;;;;22.42;20.27;;;17.50;99.90;;;;;;5187490;28;20502;-75
2023/04/25 08:13:29;;;;;;;22.33;20.85;;;17.70;99.90;;;;;;5187462;28;20049;-75
2023/04/25 08:16:00;;;;;;;20.52;18.98;;;17.60;99.90;;;;;;5187454;28;20067;-75
2023/04/25 08:18:30;;;;;;;22.15;20.20;;;17.40;99.90;;;;;;5187295;28;20040;-75
2023/04/25 08:21:01;;;;;;;23.40;21.40;;;17.50;99.90;;;;;;5187140;28;20060;-74
2023/04/25 08:23:32;;;;;;;20.88;19.27;;;17.50;99.90;;;;;;5187007;28;20084;-75
2023/04/25 08:26:04;;;;;;;21.55;19.73;;;17.90;99.90;;;;;;5169724;28;20030;-75
2023/04/25 08:28:35;;;;;;;24.60;22.50;;;17.80;99.90;;;;;;5187594;28;20469;-75
2023/04/25 08:31:06;;;;;;;23.05;21.40;;;18.10;99.90;;;;;;5187152;28;20036;-75
2023/04/25 08:33:37;;;;;;;23.63;21.85;;;18.30;99.90;;;;;;5187032;28;20025;-75
2023/04/25 08:36:08;;;;;;;23.17;21.52;;;18.60;99.90;;;;;;5186952;28;20109;-75
2023/04/25 08:38:39;;;;;;;24.65;23.15;;;18.50;99.90;;;;;;5169543;28;20022;-75
2023/04/25 08:41:12;;;;;;;23.95;22.35;;;18.80;99.90;;;;;;5169133;28;20133;-75
2023/04/25 08:43:46;;;;;;;24.05;22.45;;;18.90;99.90;;;;;;5186961;28;20018;-75
2023/04/25 08:46:18;;;;;;;23.92;22.42;;;19.40;99.90;;;;;;5186810;28;20018;-76
2023/04/25 08:48:52;;;;;;;24.95;23.15;;;19.20;99.90;;;;;;5187079;28;20037;-75
2023/04/25 08:51:27;;;;;;;23.92;22.13;;;19.60;99.90;;;;;;5169145;28;20125;-75
2023/04/25 08:54:11;;;;;;;22.45;20.75;;;19.30;99.90;;;;;;5169289;28;20495;-75
2023/04/25 08:56:47;;;;;;;22.95;21.35;;;19.60;99.90;;;;;;5186009;28;20764;-75
2023/04/25 08:59:18;;;;;;;24.23;22.20;;;19.70;99.90;;;;;;5186732;28;20022;-75
2023/04/25 09:01:51;;;;;;;24.75;22.92;;;19.80;99.90;;;;;;5186665;28;20473;-75
2023/04/25 09:04:21;;;;;;;26.65;24.60;;;19.90;99.90;;;;;;5186720;28;20093;-75
2023/04/25 09:06:52;;;;;;;24.60;22.50;;;20.00;99.90;;;;;;5169167;28;20025;-75
2023/04/25 09:09:24;;;;;;;27.05;24.85;;;19.70;99.90;;;;;;5186321;28;20113;-76
2023/04/25 09:11:55;;;;;;;25.75;23.27;;;19.60;99.90;;;;;;5168710;28;20069;-75
2023/04/25 09:14:27;;;;;;;23.45;21.58;;;19.70;99.90;;;;;;5186571;28;20022;-75
2023/04/25 09:17:01;;;;;;;23.75;22.05;;;19.70;99.90;;;;;;5186524;28;20524;-75
2023/04/25 09:19:35;;;;;;;25.10;23.20;;;19.80;99.90;;;;;;5186463;28;20532;-75
2023/04/25 09:22:06;;;;;;;24.60;22.15;;;19.60;99.90;;;;;;5186349;28;20057;-75
2023/04/25 09:24:43;;;;;;;24.98;23.08;;;19.30;99.90;;;;;;5186573;28;20022;-74
2023/04/25 09:27:22;;;;;;;23.70;22.10;;;19.30;99.90;;;;;;5168866;28;20026;-74
2023/04/25 09:30:01;;;;;;;22.45;21.05;;;19.40;99.90;;;;;;5186294;28;20033;-75
2023/04/25 09:32:31;;;;;;;25.25;23.35;;;19.20;99.90;;;;;;5186024;28;20038;-75
2023/04/25 09:35:03;;;;;;;25.50;23.88;;;19.60;99.90;;;;;;5186448;28;20022;-75
2023/04/25 09:37:34;;;;;;;24.80;23.27;;;19.60;99.90;;;;;;5168703;28;20033;-76
2023/04/25 09:40:07;;;;;;;24.80;22.83;;;19.90;99.90;;;;;;5186273;28;20061;-75
2023/04/25 09:42:41;;;;;;;25.55;23.92;;;20.10;99.90;;;;;;5186272;28;20402;-75
2023/04/25 09:45:15;;;;;;;24.58;22.98;;;20.10;99.90;;;;;;5186238;28;20036;-75
2023/04/25 09:47:46;;;;;;;25.20;23.50;;;20.50;99.90;;;;;;5185948;28;20022;-75
2023/04/25 09:50:19;;;;;;;25.60;23.95;;;20.60;99.90;;;;;;5186082;28;20117;-75
2023/04/25 09:53:05;;;;;;;25.98;24.13;;;20.10;99.90;;;;;;5186199;28;20145;-75
2023/04/25 09:55:36;;;;;;;25.52;23.80;;;20.50;99.90;;;;;;5186188;28;20018;-75
2023/04/25 09:58:10;;;;;;;25.88;24.13;;;20.70;99.90;;;;;;5186018;28;20064;-75
2023/04/25 10:00:41;;;;;;;29.40;27.38;;;20.60;99.90;;;;;;5185767;28;20125;-75
2023/04/25 10:03:13;;;;;;;29.27;26.92;;;20.70;99.90;;;;;;5186114;28;20026;-75
2023/04/25 10:05:44;;;;;;;30.02;28.30;;;20.70;99.90;;;;;;5186315;28;20377;-75
2023/04/25 10:08:16;;;;;;;27.42;25.33;;;20.60;99.90;;;;;;5188709;28;20065;-75
2023/04/25 10:10:50;;;;;;;28.73;26.65;;;20.50;99.90;;;;;;5189974;28;20025;-75
2023/04/25 10:13:22;;;;;;;31.63;29.27;;;20.60;99.90;;;;;;5172251;28;20041;-75
2023/04/25 10:15:54;;;;;;;29.52;27.77;;;20.30;99.90;;;;;;5172201;28;20025;-75
2023/04/25 10:18:27;;;;;;;30.90;28.90;;;20.20;99.90;;;;;;5172237;28;20092;-74
2023/04/25 10:21:06;;;;;;;30.77;28.75;;;20.10;99.90;;;;;;5189530;28;20541;-75
2023/04/25 10:23:37;;;;;;;32.17;29.42;;;20.50;99.90;;;;;;5189404;28;20080;-75
2023/04/25 10:26:12;;;;;;;30.55;28.67;;;20.00;99.90;;;;;;5189406;28;20026;-75
2023/04/25 10:29:03;;;;;;;28.63;26.88;;;20.50;99.90;;;;;;5189446;28;20080;-75
2023/04/25 10:31:45;;;;;;;30.05;28.00;;;21.00;99.90;;;;;;5189191;28;20037;-75
2023/04/25 10:34:17;;;;;;;29.90;28.10;;;20.90;99.90;;;;;;5189195;28;20036;-75
2023/04/25 10:36:52;;;;;;;29.55;27.40;;;20.60;99.90;;;;;;5189364;28;20548;-75
2023/04/25 10:39:26;;;;;;;30.75;28.73;;;20.50;99.90;;;;;;5189062;28;20030;-75
2023/04/25 10:41:58;;;;;;;29.88;27.95;;;20.40;99.90;;;;;;5189442;28;20425;-75
2023/04/25 10:44:30;;;;;;;27.70;25.95;;;20.60;99.90;;;;;;5171610;28;20018;-75
2023/04/25 10:47:02;;;;;;;29.52;27.52;;;20.90;99.90;;;;;;5189006;28;20026;-75
2023/04/25 10:49:37;;;;;;;32.70;30.65;;;20.80;99.90;;;;;;5188890;28;20077;-75
2023/04/25 10:52:17;;;;;;;31.75;29.65;;;20.80;99.90;;;;;;5188731;28;20038;-75
2023/04/25 10:54:51;;;;;;;31.85;29.70;;;21.00;99.90;;;;;;5189007;28;20109;-75
2023/04/25 10:57:35;;;;;;;30.98;29.05;;;21.00;99.90;;;;;;5188891;28;20029;-74
2023/04/25 11:00:10;;;;;;;29.13;27.23;;;21.30;99.90;;;;;;5188892;28;20025;-75
2023/04/25 11:02:52;;;;;;;28.75;26.65;;;21.20;99.90;;;;;;5171201;28;20470;-74
2023/04/25 11:05:31;;;;;;;27.38;25.58;;;21.00;99.90;;;;;;5188820;28;20033;-75
2023/04/25 11:08:13;;;;;;;28.00;26.00;;;20.60;99.90;;;;;;5188886;28;20021;-75
2023/04/25 11:10:45;;;;;;;30.77;28.67;;;20.90;99.90;;;;;;5188446;28;20054;-75
2023/04/25 11:13:15;;;;;;;30.38;28.48;;;21.10;99.90;;;;;;5188531;28;20540;-75
2023/04/25 11:15:51;;;;;;;33.72;31.52;;;20.70;99.90;;;;;;5171021;28;20124;-75
2023/04/25 11:18:27;;;;;;;34.13;31.70;;;21.40;99.90;;;;;;5187530;28;20092;-74
2023/04/25 11:20:57;;;;;;;33.95;31.73;;;21.10;99.90;;;;;;5170669;28;20069;-75
2023/04/25 11:23:30;;;;;;;33.95;31.75;;;21.40;99.90;;;;;;5188062;28;20030;-75
2023/04/25 11:26:01;;;;;;;33.53;31.33;;;21.10;99.90;;;;;;5188242;28;20362;-74
2023/04/25 11:28:32;;;;;;;34.00;31.90;;;21.30;99.90;;;;;;5170870;28;20084;-75
2023/04/25 11:31:04;;;;;;;32.20;30.20;;;21.00;99.90;;;;;;5170602;28;20022;-75
2023/04/25 11:33:36;;;;;;;32.20;30.08;;;21.50;99.90;;;;;;5188314;28;20049;-75
2023/04/25 11:36:07;;;;;;;31.38;29.45;;;21.30;99.90;;;;;;5170697;28;20084;-74
2023/04/25 11:38:38;;;;;;;33.92;31.40;;;21.10;99.90;;;;;;5188033;28;20057;-75
2023/04/25 11:41:09;;;;;;;32.63;30.83;;;21.00;99.90;;;;;;5188163;28;20014;-74
2023/04/25 11:43:39;;;;;;;32.72;30.52;;;20.90;99.90;;;;;;5170231;28;20037;-74
2023/04/25 11:46:11;;;;;;;34.47;31.58;;;21.00;99.90;;;;;;5187774;28;20470;-75
2023/04/25 11:48:43;;;;;;;29.92;27.73;;;21.60;99.90;;;;;;5188181;28;20039;-75
2023/04/25 11:51:14;;;;;;;29.77;27.85;;;21.40;99.90;;;;;;5170128;28;20478;-75
2023/04/25 11:53:46;;;;;;;30.42;28.17;;;21.30;99.90;;;;;;5187749;28;20417;-75
2023/04/25 11:56:16;;;;;;;31.25;29.15;;;21.30;99.90;;;;;;5187947;28;20029;-75
2023/04/25 11:58:57;;;;;;;32.33;29.88;;;21.30;99.90;;;;;;5187870;28;20026;-75
2023/04/25 12:01:30;;;;;;;31.00;28.77;;;21.60;99.90;;;;;;5170395;28;20504;-75
2023/04/25 12:04:32;;;;;;;31.05;28.95;;;21.30;99.90;;;;;;5170138;28;20026;-76
2023/04/25 12:07:03;;;;;;;31.92;29.85;;;21.30;99.90;;;;;;5150719;28;20041;-75
2023/04/25 12:09:34;;;;;;;27.75;25.83;;;21.80;99.90;;;;;;5169901;28;20048;-75
2023/04/25 12:12:05;;;;;;;29.90;27.88;;;22.00;99.90;;;;;;5187322;28;20044;-75
2023/04/25 12:14:36;;;;;;;26.52;24.88;;;22.00;99.90;;;;;;5169852;28;20025;-75
2023/04/25 12:17:07;;;;;;;27.48;25.77;;;21.60;99.90;;;;;;5187333;28;20037;-75
2023/04/25 12:19:43;;;;;;;32.25;30.05;;;21.60;99.90;;;;;;5169366;28;20057;-75
2023/04/25 12:22:24;;;;;;;31.00;29.05;;;21.80;99.90;;;;;;5187383;28;20034;-75
2023/04/25 12:24:58;;;;;;;30.73;28.92;;;22.10;99.90;;;;;;5187252;28;20037;-74
2023/04/25 12:27:31;;;;;;;33.83;31.75;;;21.70;99.90;;;;;;5187030;28;20014;-74
2023/04/25 12:30:03;;;;;;;30.25;28.02;;;21.80;99.90;;;;;;5187338;28;20033;-75
2023/04/25 12:32:35;;;;;;;29.65;27.48;;;21.70;99.90;;;;;;5187236;28;20030;-75
2023/04/25 12:35:06;;;;;;;28.10;26.20;;;22.00;99.90;;;;;;5187180;28;20029;-75
2023/04/25 12:37:37;;;;;;;32.67;30.25;;;21.70;99.90;;;;;;5169131;28;20503;-75
2023/04/25 12:40:08;;;;;;;28.95;26.98;;;21.80;99.90;;;;;;5187053;28;20026;-74
2023/04/25 12:42:39;;;;;;;27.98;25.92;;;22.10;99.90;;;;;;5186576;28;20041;-75
2023/04/25 12:45:10;;;;;;;29.45;27.45;;;21.70;99.90;;;;;;5169313;28;20026;-75
2023/04/25 12:47:41;;;;;;;26.13;24.00;;;21.90;99.90;;;;;;5187054;28;20037;-75
2023/04/25 12:50:12;;;;;;;27.35;25.60;;;22.10;99.90;;;;;;5186660;28;20363;-74
2023/04/25 12:52:42;;;;;;;27.48;25.55;;;21.90;99.90;;;;;;5186774;28;20093;-75
2023/04/25 12:55:13;;;;;;;24.33;22.63;;;22.30;99.90;;;;;;5186882;28;20422;-74